Time;durP1;ratioP1;P1;durP2;ratioP2;P2;SDS_P1;SDS_P2;PMS_P1;PMS_P2;Temp;Humidity;BMP_temperature;BMP_pressure;BME280_temperature;BME280_humidity;BME280_pressure;Samples;Min_cycle;Max_cycle;Signal;HPM_P1;HPM_P2
2023/05/13 00:01:50;;;;;;;6.95;5.40;;;15.60;59.90;;;;;;5047671;28;20570;-80
2023/05/13 00:04:18;;;;;;;7.82;5.85;;;15.60;60.00;;;;;;5035770;28;20410;-80
2023/05/13 00:06:45;;;;;;;11.37;5.83;;;15.60;60.10;;;;;;5051376;28;20132;-80
2023/05/13 00:09:12;;;;;;;8.80;5.65;;;15.60;60.20;;;;;;5051410;28;20263;-80
2023/05/13 00:11:39;;;;;;;7.90;5.60;;;15.50;60.20;;;;;;5061022;28;20499;-80
2023/05/13 00:14:08;;;;;;;8.75;5.90;;;15.50;60.20;;;;;;5034997;28;20060;-80
2023/05/13 00:16:37;;;;;;;10.02;5.97;;;15.40;60.20;;;;;;5038850;28;20053;-80
2023/05/13 00:19:04;;;;;;;8.60;5.97;;;15.40;60.30;;;;;;5044685;28;20080;-80
2023/05/13 00:21:33;;;;;;;9.68;5.80;;;15.40;60.40;;;;;;5032714;28;20366;-80
2023/05/13 00:24:00;;;;;;;9.30;6.00;;;15.30;60.50;;;;;;5034631;28;20041;-80
2023/05/13 00:26:26;;;;;;;8.30;5.57;;;15.30;60.70;;;;;;5033227;28;20149;-80
2023/05/13 00:28:53;;;;;;;10.45;6.05;;;15.20;60.80;;;;;;5049089;28;20055;-79
2023/05/13 00:31:20;;;;;;;7.80;5.73;;;15.20;60.90;;;;;;5033615;28;21042;-80
2023/05/13 00:33:47;;;;;;;10.15;5.47;;;15.20;61.00;;;;;;5030849;28;20248;-79
2023/05/13 00:36:17;;;;;;;8.68;5.65;;;15.10;61.10;;;;;;5040597;28;20482;-79
2023/05/13 00:38:45;;;;;;;8.85;5.78;;;15.00;61.20;;;;;;5032461;28;20096;-80
2023/05/13 00:41:13;;;;;;;10.38;5.68;;;15.00;61.30;;;;;;5030844;28;20500;-80
2023/05/13 00:43:40;;;;;;;10.23;6.03;;;15.00;61.30;;;;;;5030159;28;20140;-79
2023/05/13 00:46:07;;;;;;;9.30;5.70;;;15.00;61.40;;;;;;5051442;28;20252;-80
2023/05/13 00:48:34;;;;;;;9.23;5.57;;;15.00;61.50;;;;;;5048421;28;20102;-80
2023/05/13 00:51:04;;;;;;;9.07;5.68;;;14.90;61.60;;;;;;5048026;28;20053;-79
2023/05/13 00:53:33;;;;;;;9.15;5.78;;;14.90;61.70;;;;;;5034020;28;20053;-79
2023/05/13 00:56:01;;;;;;;8.60;5.47;;;14.90;61.80;;;;;;5050573;28;20072;-80
2023/05/13 00:58:28;;;;;;;8.13;5.65;;;14.80;61.90;;;;;;5044455;28;20520;-79
2023/05/13 01:01:06;;;;;;;8.57;6.13;;;14.80;61.90;;;;;;5023608;28;20107;-80
2023/05/13 01:03:39;;;;;;;8.25;5.28;;;14.80;62.10;;;;;;5041692;28;20049;-80
2023/05/13 01:06:11;;;;;;;9.20;5.55;;;14.80;62.10;;;;;;5034264;28;20045;-79
2023/05/13 01:08:44;;;;;;;9.80;5.63;;;14.70;62.20;;;;;;5031863;28;20053;-80
2023/05/13 01:11:15;;;;;;;8.48;5.40;;;14.70;62.30;;;;;;5069033;28;20303;-79
2023/05/13 01:13:46;;;;;;;8.05;5.40;;;14.70;62.30;;;;;;5042466;28;20049;-79
2023/05/13 01:16:18;;;;;;;8.25;5.55;;;14.60;62.50;;;;;;5050171;28;20491;-79
2023/05/13 01:19:01;;;;;;;8.32;5.65;;;14.60;62.60;;;;;;5025233;28;20067;-79
2023/05/13 01:21:34;;;;;;;9.00;6.00;;;14.60;62.60;;;;;;5031951;28;20670;-79
2023/05/13 01:24:01;;;;;;;7.72;5.90;;;14.50;62.60;;;;;;5033630;28;20353;-80
2023/05/13 01:26:28;;;;;;;7.78;5.80;;;14.50;62.90;;;;;;5050929;28;20121;-80
2023/05/13 01:28:55;;;;;;;12.00;5.90;;;14.50;63.00;;;;;;5027332;28;20578;-79
2023/05/13 01:31:23;;;;;;;9.02;5.80;;;14.50;63.00;;;;;;5013423;28;20060;-80
2023/05/13 01:33:51;;;;;;;8.70;6.00;;;14.40;63.10;;;;;;5030299;28;20100;-79
2023/05/13 01:36:18;;;;;;;10.18;6.25;;;14.30;63.20;;;;;;5018339;28;20322;-79
2023/05/13 01:38:48;;;;;;;8.63;5.93;;;14.30;63.30;;;;;;5033150;28;20507;-79
2023/05/13 01:41:16;;;;;;;11.95;6.35;;;14.30;63.50;;;;;;5035951;28;20139;-79
2023/05/13 01:43:43;;;;;;;8.48;6.22;;;14.30;63.60;;;;;;5051963;28;20136;-79
2023/05/13 01:46:12;;;;;;;11.47;6.57;;;14.30;63.60;;;;;;5035967;28;20041;-79
2023/05/13 01:48:39;;;;;;;9.95;6.30;;;14.20;63.70;;;;;;5036723;28;20603;-79
2023/05/13 01:51:07;;;;;;;9.35;5.95;;;14.20;63.60;;;;;;5036757;28;20052;-79
2023/05/13 01:53:33;;;;;;;8.25;6.10;;;14.20;63.70;;;;;;5035635;28;20131;-79
2023/05/13 01:56:02;;;;;;;9.68;6.28;;;14.20;63.80;;;;;;5037142;28;20148;-79
2023/05/13 01:58:29;;;;;;;9.07;6.10;;;14.20;63.90;;;;;;5037145;28;20041;-79
2023/05/13 02:00:56;;;;;;;9.20;5.95;;;14.20;63.90;;;;;;5033785;28;20964;-79
2023/05/13 02:03:23;;;;;;;9.32;6.13;;;14.10;63.90;;;;;;5048702;28;20055;-80
2023/05/13 02:05:50;;;;;;;8.45;6.13;;;14.10;64.00;;;;;;5020040;28;20552;-79
2023/05/13 02:08:16;;;;;;;8.52;5.80;;;14.10;64.10;;;;;;5016801;28;20156;-80
2023/05/13 02:10:43;;;;;;;11.07;6.23;;;14.10;64.10;;;;;;5016260;28;20057;-79
2023/05/13 02:13:12;;;;;;;10.00;6.50;;;14.10;64.20;;;;;;5016383;28;20248;-79
2023/05/13 02:15:39;;;;;;;11.10;5.88;;;14.10;64.20;;;;;;5016969;28;20057;-79
2023/05/13 02:18:06;;;;;;;12.27;6.65;;;14.00;64.20;;;;;;5033374;28;20045;-79
2023/05/13 02:20:34;;;;;;;9.88;6.25;;;14.00;64.30;;;;;;5036313;28;20055;-79
2023/05/13 02:23:01;;;;;;;9.93;6.30;;;14.00;64.30;;;;;;5028090;28;20115;-79
2023/05/13 02:25:30;;;;;;;9.10;6.68;;;14.00;64.50;;;;;;5016907;28;20342;-79
2023/05/13 02:27:59;;;;;;;9.30;6.03;;;14.00;64.60;;;;;;5022641;28;20590;-79
2023/05/13 02:30:28;;;;;;;10.00;6.78;;;13.90;64.60;;;;;;5049848;28;20504;-79
2023/05/13 02:32:55;;;;;;;10.65;6.80;;;13.90;64.70;;;;;;5016310;28;20053;-79
2023/05/13 02:35:24;;;;;;;9.93;6.67;;;13.90;64.80;;;;;;5034990;28;20067;-79
2023/05/13 02:37:51;;;;;;;9.82;6.50;;;13.90;64.90;;;;;;5016678;28;20890;-79
2023/05/13 02:40:18;;;;;;;10.68;6.82;;;13.90;65.00;;;;;;5033096;28;20050;-80
2023/05/13 02:42:46;;;;;;;10.05;6.40;;;13.90;65.00;;;;;;5016565;28;20123;-79
2023/05/13 02:45:15;;;;;;;10.65;6.70;;;13.90;65.10;;;;;;5024258;28;20518;-79
2023/05/13 02:47:48;;;;;;;9.80;6.87;;;13.80;65.20;;;;;;5032831;28;20045;-79
2023/05/13 02:50:15;;;;;;;11.32;6.78;;;13.80;65.20;;;;;;5033584;28;20371;-79
2023/05/13 02:52:43;;;;;;;11.05;7.20;;;13.80;65.10;;;;;;5035008;28;20084;-80
2023/05/13 02:55:10;;;;;;;10.23;6.47;;;13.70;65.10;;;;;;5035223;28;20047;-79
2023/05/13 02:57:38;;;;;;;11.43;6.80;;;13.70;65.20;;;;;;5048474;28;20469;-80
2023/05/13 03:00:07;;;;;;;10.00;6.60;;;13.70;65.20;;;;;;5033049;28;20054;-80
2023/05/13 03:02:35;;;;;;;9.95;6.65;;;13.70;65.20;;;;;;5015776;28;20336;-79
2023/05/13 03:05:04;;;;;;;9.98;7.05;;;13.70;65.20;;;;;;5016720;28;20054;-79
2023/05/13 03:07:31;;;;;;;9.70;6.75;;;13.60;65.30;;;;;;5026253;28;20136;-79
2023/05/13 03:09:58;;;;;;;10.27;6.90;;;13.60;65.40;;;;;;5035376;28;20049;-79
2023/05/13 03:12:25;;;;;;;9.93;6.77;;;13.60;65.40;;;;;;5016082;28;20488;-79
2023/05/13 03:14:52;;;;;;;9.38;6.40;;;13.60;65.50;;;;;;5016146;28;20399;-79
2023/05/13 03:17:19;;;;;;;11.07;7.13;;;13.60;65.60;;;;;;5032263;28;20141;-79
2023/05/13 03:19:46;;;;;;;9.98;7.20;;;13.60;65.70;;;;;;5026706;28;20053;-79
2023/05/13 03:22:15;;;;;;;10.38;6.93;;;13.60;65.70;;;;;;5033620;28;20418;-79
2023/05/13 03:24:43;;;;;;;9.23;6.87;;;13.60;65.70;;;;;;5035487;28;20053;-79
2023/05/13 03:27:11;;;;;;;10.35;6.90;;;13.50;65.70;;;;;;5051882;28;20705;-79
2023/05/13 03:29:39;;;;;;;11.63;7.03;;;13.50;65.70;;;;;;5016490;28;20057;-79
2023/05/13 03:32:07;;;;;;;10.75;7.13;;;13.50;65.80;;;;;;5015001;28;20053;-79
2023/05/13 03:34:36;;;;;;;10.52;7.40;;;13.50;65.90;;;;;;5015358;28;20061;-79
2023/05/13 03:37:04;;;;;;;12.43;7.27;;;13.50;65.90;;;;;;5027356;28;20610;-80
2023/05/13 03:39:33;;;;;;;13.65;7.07;;;13.50;65.90;;;;;;5035505;28;20283;-79
2023/05/13 03:42:00;;;;;;;12.15;7.35;;;13.50;65.90;;;;;;5051430;28;20072;-79
2023/05/13 03:44:27;;;;;;;11.63;7.57;;;13.50;66.00;;;;;;5023567;28;20053;-79
2023/05/13 03:46:55;;;;;;;12.27;8.07;;;13.40;66.10;;;;;;5015112;28;20096;-79
2023/05/13 03:49:22;;;;;;;13.13;8.53;;;13.40;66.20;;;;;;5015440;28;20060;-79
2023/05/13 03:51:49;;;;;;;10.55;7.75;;;13.40;66.20;;;;;;5015170;28;20265;-79
2023/05/13 03:54:16;;;;;;;12.90;8.25;;;13.30;66.30;;;;;;5014364;28;20137;-79
2023/05/13 03:56:44;;;;;;;12.38;7.82;;;13.30;66.30;;;;;;5015063;28;20046;-79
2023/05/13 03:59:12;;;;;;;13.63;8.20;;;13.30;66.40;;;;;;5015079;28;20053;-80
2023/05/13 04:01:40;;;;;;;9.83;7.80;;;13.30;66.40;;;;;;5014059;28;20177;-79
2023/05/13 04:04:07;;;;;;;10.90;8.05;;;13.30;66.40;;;;;;5038252;28;20284;-79
2023/05/13 04:06:34;;;;;;;12.60;8.65;;;13.30;66.50;;;;;;5031232;28;20143;-79
2023/05/13 04:09:03;;;;;;;12.07;8.40;;;13.30;66.60;;;;;;5013960;28;20530;-79
2023/05/13 04:11:31;;;;;;;11.57;8.40;;;13.30;66.70;;;;;;5041114;28;20103;-79
2023/05/13 04:14:00;;;;;;;12.93;8.53;;;13.20;66.80;;;;;;5046399;28;20538;-79
2023/05/13 04:16:28;;;;;;;12.05;7.85;;;13.10;66.80;;;;;;5013897;28;20547;-79
2023/05/13 04:18:55;;;;;;;11.95;8.40;;;13.10;66.80;;;;;;5052487;28;20600;-79
2023/05/13 04:21:22;;;;;;;12.60;8.80;;;13.10;66.90;;;;;;5034551;28;20049;-79
2023/05/13 04:23:49;;;;;;;10.85;7.93;;;13.10;66.90;;;;;;5035497;28;20099;-79
2023/05/13 04:26:16;;;;;;;11.37;8.53;;;13.10;66.90;;;;;;5031080;28;20053;-79
2023/05/13 04:28:43;;;;;;;12.77;8.90;;;13.10;67.10;;;;;;5042081;28;20272;-79
2023/05/13 04:31:12;;;;;;;13.50;8.68;;;13.10;67.20;;;;;;5033723;28;20049;-79
2023/05/13 04:33:39;;;;;;;11.75;8.90;;;13.10;67.30;;;;;;5044963;28;20061;-79
2023/05/13 04:36:08;;;;;;;12.77;8.70;;;13.10;67.50;;;;;;5017105;28;20461;-79
2023/05/13 04:38:35;;;;;;;12.20;8.17;;;13.00;67.60;;;;;;5029216;28;20052;-79
2023/05/13 04:41:03;;;;;;;13.35;8.93;;;13.00;67.60;;;;;;5014324;28;20332;-79
2023/05/13 04:43:37;;;;;;;11.27;8.07;;;13.00;67.70;;;;;;5014625;28;20049;-79
2023/05/13 04:46:05;;;;;;;11.85;8.52;;;13.00;67.80;;;;;;5044445;28;20054;-79
2023/05/13 04:48:33;;;;;;;13.27;9.00;;;13.00;67.90;;;;;;5034093;28;20057;-79
2023/05/13 04:51:00;;;;;;;14.63;8.77;;;13.00;68.00;;;;;;5050055;28;20080;-79
2023/05/13 04:53:27;;;;;;;13.93;9.02;;;13.00;68.10;;;;;;5034135;28;21039;-79
2023/05/13 04:55:59;;;;;;;12.85;9.05;;;12.90;68.30;;;;;;5050473;28;20049;-80
2023/05/13 04:58:28;;;;;;;14.23;8.57;;;12.90;68.30;;;;;;5034071;28;20056;-79
2023/05/13 05:00:56;;;;;;;13.38;9.05;;;13.00;68.50;;;;;;5033695;28;20071;-79
2023/05/13 05:03:23;;;;;;;13.57;9.37;;;12.90;68.70;;;;;;5017620;28;20045;-79
2023/05/13 05:05:53;;;;;;;14.25;9.43;;;12.90;68.80;;;;;;5042192;28;20331;-79
2023/05/13 05:08:20;;;;;;;11.48;8.50;;;12.90;69.00;;;;;;5033612;28;20055;-79
2023/05/13 05:10:49;;;;;;;14.40;9.38;;;12.90;69.00;;;;;;5023886;28;20133;-79
2023/05/13 05:13:16;;;;;;;13.40;9.23;;;12.90;69.10;;;;;;5027657;28;20558;-79
2023/05/13 05:15:44;;;;;;;11.30;8.30;;;12.90;69.40;;;;;;5026242;28;20556;-79
2023/05/13 05:18:12;;;;;;;10.70;8.48;;;12.90;69.50;;;;;;5033747;28;20416;-79
2023/05/13 05:20:41;;;;;;;14.73;8.95;;;12.90;69.60;;;;;;5025704;28;20076;-79
2023/05/13 05:23:15;;;;;;;13.60;8.77;;;12.90;69.70;;;;;;5023757;28;20592;-79
2023/05/13 05:25:42;;;;;;;13.20;8.90;;;12.90;70.10;;;;;;5013372;28;20049;-79
2023/05/13 05:28:09;;;;;;;15.53;9.07;;;12.90;70.30;;;;;;5026111;28;20045;-79
2023/05/13 05:30:40;;;;;;;13.60;9.07;;;12.90;70.40;;;;;;5040370;28;20249;-79
2023/05/13 05:33:13;;;;;;;15.05;9.27;;;12.90;70.40;;;;;;5013546;28;20059;-79
2023/05/13 05:35:41;;;;;;;13.73;9.35;;;13.00;70.70;;;;;;5013550;28;20561;-79
2023/05/13 05:38:11;;;;;;;12.40;8.60;;;12.90;70.70;;;;;;5029642;28;20151;-79
2023/05/13 05:40:43;;;;;;;13.53;9.03;;;12.90;70.80;;;;;;5033258;28;20049;-79
2023/05/13 05:43:11;;;;;;;14.05;9.00;;;13.00;71.00;;;;;;5033068;28;20720;-79
2023/05/13 05:45:39;;;;;;;13.68;9.00;;;13.00;70.90;;;;;;5033580;28;20064;-79
2023/05/13 05:48:08;;;;;;;12.43;8.68;;;13.00;71.10;;;;;;5046253;28;20570;-79
2023/05/13 05:50:35;;;;;;;13.23;9.10;;;13.00;71.10;;;;;;5012960;28;20531;-79
2023/05/13 05:53:05;;;;;;;13.80;8.80;;;13.00;71.30;;;;;;5024767;28;20072;-79
2023/05/13 05:55:35;;;;;;;13.98;9.32;;;13.10;71.40;;;;;;5044783;28;20257;-79
2023/05/13 05:58:05;;;;;;;14.70;8.90;;;13.10;71.50;;;;;;5030950;28;20057;-79
2023/05/13 06:00:33;;;;;;;13.45;8.85;;;13.10;71.50;;;;;;5042014;28;20064;-79
2023/05/13 06:03:04;;;;;;;11.98;8.85;;;13.10;71.60;;;;;;5027261;28;20124;-80
2023/05/13 06:05:32;;;;;;;13.50;8.80;;;13.10;71.60;;;;;;5026838;28;20184;-79
2023/05/13 06:07:59;;;;;;;11.77;9.10;;;13.10;71.70;;;;;;5040870;28;20286;-80
2023/05/13 06:10:26;;;;;;;13.43;9.05;;;13.10;71.80;;;;;;5028120;28;20516;-79
2023/05/13 06:12:53;;;;;;;13.15;8.60;;;13.10;71.80;;;;;;5024039;28;20045;-80
2023/05/13 06:15:22;;;;;;;12.38;8.70;;;13.10;71.90;;;;;;5029288;28;20512;-80
2023/05/13 06:17:49;;;;;;;13.77;9.13;;;13.10;72.00;;;;;;5042657;28;20050;-80
2023/05/13 06:20:16;;;;;;;13.52;9.40;;;13.20;71.90;;;;;;5042680;28;20320;-80
2023/05/13 06:22:43;;;;;;;13.10;8.90;;;13.20;71.80;;;;;;5042951;28;20045;-80
2023/05/13 06:25:10;;;;;;;12.57;8.80;;;13.30;71.90;;;;;;5031079;28;20524;-80
2023/05/13 06:27:37;;;;;;;14.13;9.65;;;13.30;72.10;;;;;;5034304;28;20130;-80
2023/05/13 06:30:05;;;;;;;14.97;9.13;;;13.30;72.10;;;;;;5034358;28;20041;-80
2023/05/13 06:32:34;;;;;;;13.63;9.35;;;13.30;72.20;;;;;;5026536;28;20264;-80
2023/05/13 06:35:01;;;;;;;14.77;9.40;;;13.30;72.40;;;;;;5033459;28;20507;-80
2023/05/13 06:37:28;;;;;;;14.55;8.88;;;13.40;72.70;;;;;;5029436;28;20072;-80
2023/05/13 06:39:55;;;;;;;12.18;8.68;;;13.40;72.60;;;;;;5040743;28;20049;-80
2023/05/13 06:42:23;;;;;;;14.47;9.10;;;13.50;72.50;;;;;;5026983;28;20128;-80
2023/05/13 06:44:58;;;;;;;13.23;8.73;;;13.50;72.60;;;;;;5039591;28;20268;-80
2023/05/13 06:47:28;;;;;;;11.80;8.20;;;13.50;72.80;;;;;;5048061;28;20045;-80
2023/05/13 06:49:56;;;;;;;12.48;8.65;;;13.50;72.80;;;;;;5027448;28;20588;-80
2023/05/13 06:52:23;;;;;;;15.02;9.18;;;13.60;72.90;;;;;;5024176;28;20138;-80
2023/05/13 06:54:50;;;;;;;13.00;8.93;;;13.60;72.80;;;;;;5051424;28;20616;-80
2023/05/13 06:57:17;;;;;;;13.27;8.90;;;13.60;72.80;;;;;;5029457;28;20280;-80
2023/05/13 06:59:44;;;;;;;12.95;9.35;;;13.70;72.90;;;;;;5053005;28;20045;-80
2023/05/13 07:02:11;;;;;;;12.68;8.38;;;13.70;72.80;;;;;;5038609;28;20257;-80
2023/05/13 07:04:38;;;;;;;12.65;8.70;;;13.70;72.80;;;;;;5040378;28;20049;-80
2023/05/13 07:07:06;;;;;;;16.83;8.93;;;13.90;72.70;;;;;;5049107;28;20510;-80
2023/05/13 07:09:34;;;;;;;13.10;8.77;;;13.90;72.90;;;;;;5050922;28;20692;-80
2023/05/13 07:12:00;;;;;;;11.98;8.65;;;13.90;73.00;;;;;;5046368;28;20103;-80
2023/05/13 07:14:28;;;;;;;13.38;8.32;;;13.90;73.00;;;;;;5044423;28;20050;-80
2023/05/13 07:16:57;;;;;;;15.18;9.15;;;14.00;73.00;;;;;;5046451;28;20049;-79
2023/05/13 07:19:24;;;;;;;11.60;8.90;;;14.00;72.90;;;;;;5069716;28;20136;-80
2023/05/13 07:21:51;;;;;;;12.38;8.38;;;14.10;73.00;;;;;;5044552;28;20815;-79
2023/05/13 07:24:19;;;;;;;13.93;8.38;;;14.10;72.90;;;;;;5042323;28;20077;-80
2023/05/13 07:26:46;;;;;;;11.75;8.77;;;14.10;72.80;;;;;;5048307;28;20050;-80
2023/05/13 07:29:13;;;;;;;12.50;8.05;;;14.20;73.00;;;;;;5045904;28;20127;-79
2023/05/13 07:31:40;;;;;;;12.63;8.53;;;14.20;73.00;;;;;;5067231;28;20057;-79
2023/05/13 07:34:07;;;;;;;12.85;8.48;;;14.30;73.10;;;;;;5044248;28;20276;-80
2023/05/13 07:36:34;;;;;;;12.75;9.07;;;14.30;73.20;;;;;;5039502;28;20057;-81
2023/05/13 07:39:03;;;;;;;12.48;8.50;;;14.40;73.10;;;;;;5045570;28;20060;-81
2023/05/13 07:41:31;;;;;;;12.80;8.20;;;14.50;73.10;;;;;;5028964;28;20049;-81
2023/05/13 07:43:58;;;;;;;11.37;8.00;;;14.50;73.00;;;;;;5041708;28;20512;-80
2023/05/13 07:46:26;;;;;;;11.95;7.85;;;14.50;73.20;;;;;;5041661;28;20283;-81
2023/05/13 07:48:53;;;;;;;13.38;7.80;;;14.60;73.20;;;;;;5044720;28;20096;-81
2023/05/13 07:51:20;;;;;;;10.30;7.57;;;14.60;73.00;;;;;;5043597;28;20140;-81
2023/05/13 07:53:47;;;;;;;12.00;7.65;;;14.70;72.90;;;;;;5039218;28;20165;-81
2023/05/13 07:56:14;;;;;;;11.40;7.47;;;14.70;72.90;;;;;;5045830;28;20131;-80
2023/05/13 07:58:42;;;;;;;12.40;8.13;;;14.80;72.90;;;;;;5044483;28;20250;-82
2023/05/13 08:01:09;;;;;;;12.52;7.32;;;14.90;72.90;;;;;;5050186;28;20056;-80
2023/05/13 08:03:36;;;;;;;12.32;7.65;;;14.90;72.80;;;;;;5066505;28;20460;-81
2023/05/13 08:06:03;;;;;;;11.93;6.78;;;15.00;73.00;;;;;;5060954;28;20051;-80
2023/05/13 08:08:30;;;;;;;12.57;6.70;;;15.00;73.00;;;;;;5025817;28;20127;-80
2023/05/13 08:10:56;;;;;;;11.93;7.72;;;15.10;73.00;;;;;;5039182;28;20245;-79
2023/05/13 08:13:24;;;;;;;13.20;8.68;;;15.20;72.80;;;;;;5054658;28;20064;-80
2023/05/13 08:15:52;;;;;;;15.77;9.05;;;15.20;72.70;;;;;;5038329;28;20045;-79
2023/05/13 08:18:19;;;;;;;10.32;8.18;;;15.30;72.80;;;;;;5026988;28;20042;-79
2023/05/13 08:20:46;;;;;;;10.90;7.80;;;15.30;73.20;;;;;;5033571;28;20060;-79
2023/05/13 08:23:13;;;;;;;13.82;8.02;;;15.40;73.20;;;;;;5049601;28;20264;-80
2023/05/13 08:25:40;;;;;;;14.20;8.13;;;15.50;73.30;;;;;;5041693;28;20061;-81
2023/05/13 08:28:08;;;;;;;11.68;7.85;;;15.50;73.50;;;;;;5043278;28;20175;-83
2023/05/13 08:30:35;;;;;;;12.55;7.82;;;15.60;73.50;;;;;;5046741;28;20052;-82
2023/05/13 08:33:03;;;;;;;11.33;7.23;;;15.60;73.20;;;;;;5019217;28;20089;-79
2023/05/13 08:35:31;;;;;;;13.45;7.38;;;15.70;73.30;;;;;;5038113;28;20280;-80
2023/05/13 08:37:58;;;;;;;11.50;7.40;;;15.80;73.20;;;;;;5042821;28;20417;-79
2023/05/13 08:40:25;;;;;;;11.45;7.38;;;15.80;73.00;;;;;;5039103;28;20120;-82
2023/05/13 08:42:56;;;;;;;10.32;7.25;;;15.80;73.20;;;;;;5024393;28;20116;-85
2023/05/13 08:45:27;;;;;;;10.80;6.83;;;15.90;73.20;;;;;;5043376;28;20758;-84
2023/05/13 08:47:58;;;;;;;10.30;6.90;;;16.00;73.10;;;;;;5043882;28;20271;-84
2023/05/13 08:50:27;;;;;;;11.82;6.88;;;16.00;73.00;;;;;;5044142;28;20132;-85
2023/05/13 08:52:55;;;;;;;10.13;6.13;;;16.10;72.90;;;;;;5032822;28;20054;-83
2023/05/13 08:55:22;;;;;;;8.85;5.38;;;16.10;72.70;;;;;;5026326;28;20127;-82
2023/05/13 08:57:50;;;;;;;8.10;5.30;;;16.20;72.30;;;;;;5050131;28;20123;-81
2023/05/13 09:00:19;;;;;;;8.20;4.78;;;16.20;72.10;;;;;;5044247;28;20271;-81
2023/05/13 09:02:48;;;;;;;7.78;4.97;;;16.30;71.70;;;;;;5046346;28;20048;-83
2023/05/13 09:05:16;;;;;;;8.27;4.70;;;16.40;71.20;;;;;;5019269;28;20052;-82
2023/05/13 09:07:44;;;;;;;8.02;4.30;;;16.40;71.00;;;;;;5041183;28;20055;-82
2023/05/13 09:10:12;;;;;;;7.77;4.40;;;16.50;70.60;;;;;;5027003;28;20045;-82
2023/05/13 09:12:45;;;;;;;7.50;4.50;;;16.60;69.70;;;;;;5029826;28;20836;-84
2023/05/13 09:15:13;;;;;;;8.63;4.50;;;16.70;69.40;;;;;;5044230;28;20128;-86
2023/05/13 09:17:42;;;;;;;9.02;4.63;;;16.70;69.60;;;;;;5025635;28;20076;-83
2023/05/13 09:20:12;;;;;;;8.10;4.38;;;16.80;69.30;;;;;;5025292;28;20053;-83
2023/05/13 09:22:47;;;;;;;7.37;4.20;;;16.90;69.20;;;;;;5032593;28;20053;-81
2023/05/13 09:25:15;;;;;;;6.47;4.13;;;16.90;68.20;;;;;;5029164;28;20285;-81
2023/05/13 09:27:43;;;;;;;8.25;4.47;;;17.00;68.00;;;;;;5013938;28;20092;-80
2023/05/13 09:30:11;;;;;;;7.05;4.20;;;17.10;67.40;;;;;;5042055;28;20057;-81
2023/05/13 09:32:39;;;;;;;7.15;4.10;;;17.20;67.50;;;;;;5031097;28;20053;-81
2023/05/13 09:35:12;;;;;;;9.47;4.67;;;17.20;67.60;;;;;;5040072;28;20096;-81
2023/05/13 09:37:39;;;;;;;7.57;4.53;;;17.30;67.10;;;;;;5046440;28;20248;-81
2023/05/13 09:40:12;;;;;;;7.70;4.30;;;17.40;66.40;;;;;;5043791;28;20045;-81
2023/05/13 09:42:42;;;;;;;7.68;4.60;;;17.50;66.20;;;;;;5044990;28;20049;-81
2023/05/13 09:45:13;;;;;;;6.82;4.15;;;17.50;66.20;;;;;;5045259;28;20136;-82
2023/05/13 09:47:41;;;;;;;6.00;3.93;;;17.60;66.00;;;;;;5043032;28;20075;-81
2023/05/13 09:50:09;;;;;;;7.88;4.25;;;17.70;65.70;;;;;;5042573;28;20277;-81
2023/05/13 09:52:38;;;;;;;7.22;3.97;;;17.80;65.80;;;;;;5058591;28;20057;-81
2023/05/13 09:55:10;;;;;;;8.20;3.88;;;17.80;65.70;;;;;;5037750;28;20120;-82
2023/05/13 09:57:38;;;;;;;6.78;3.50;;;17.90;65.50;;;;;;5030857;28;20174;-80
2023/05/13 10:00:06;;;;;;;6.00;3.60;;;18.00;65.00;;;;;;5038328;28;20574;-81
2023/05/13 10:02:40;;;;;;;5.75;3.75;;;18.00;64.20;;;;;;5045593;28;20287;-81
2023/05/13 10:05:10;;;;;;;7.30;4.00;;;18.10;63.60;;;;;;5042594;28;20052;-81
2023/05/13 10:07:38;;;;;;;6.90;3.65;;;18.20;62.80;;;;;;5043139;28;20825;-79
2023/05/13 10:10:08;;;;;;;7.43;3.90;;;18.30;62.60;;;;;;5042352;28;20196;-83
2023/05/13 10:12:39;;;;;;;7.17;3.97;;;18.40;62.40;;;;;;5049075;28;20050;-80
2023/05/13 10:15:07;;;;;;;7.20;3.50;;;18.40;62.30;;;;;;5044949;28;20268;-80
2023/05/13 10:17:35;;;;;;;7.15;3.67;;;18.50;62.50;;;;;;5042985;28;20132;-80
2023/05/13 10:20:04;;;;;;;6.65;3.58;;;18.60;62.40;;;;;;5029308;28;20041;-81
2023/05/13 10:22:33;;;;;;;8.93;3.80;;;18.60;61.70;;;;;;5027993;28;20058;-81
2023/05/13 10:25:02;;;;;;;6.37;3.70;;;18.70;61.30;;;;;;5050515;28;20404;-80
2023/05/13 10:27:31;;;;;;;5.90;3.22;;;18.80;61.10;;;;;;5033210;28;20887;-81
2023/05/13 10:30:03;;;;;;;7.30;3.45;;;18.90;60.80;;;;;;5034102;28;20053;-81
2023/05/13 10:32:31;;;;;;;6.70;3.47;;;18.90;60.10;;;;;;5043039;28;20045;-82
2023/05/13 10:35:05;;;;;;;5.93;3.50;;;19.00;59.90;;;;;;5033278;28;20148;-81
2023/05/13 10:37:54;;;;;;;6.93;3.47;;;19.10;60.00;;;;;;5048415;28;20558;-82
2023/05/13 10:41:06;;;;;;;5.07;3.20;;;19.20;60.50;;;;;;5033072;28;20379;-82
2023/05/13 10:43:35;;;;;;;7.68;3.55;;;19.30;61.10;;;;;;5042373;28;20128;-83
2023/05/13 10:46:05;;;;;;;5.38;3.05;;;19.40;59.60;;;;;;5042307;28;20050;-83
2023/05/13 10:48:41;;;;;;;5.38;3.20;;;19.40;59.00;;;;;;5044896;28;20466;-81
2023/05/13 10:51:10;;;;;;;6.73;3.50;;;19.50;57.70;;;;;;5039295;28;20049;-82
2023/05/13 10:53:42;;;;;;;6.85;3.17;;;19.50;57.60;;;;;;5064893;28;20765;-83
2023/05/13 10:56:09;;;;;;;6.35;3.30;;;19.60;56.40;;;;;;5041776;28;20077;-83
2023/05/13 10:58:37;;;;;;;5.90;3.28;;;19.70;56.40;;;;;;5042635;28;20128;-81
2023/05/13 11:01:16;;;;;;;7.45;3.10;;;19.70;56.80;;;;;;5026277;28;21092;-78
2023/05/13 11:03:51;;;;;;;6.80;2.97;;;19.90;56.50;;;;;;5070206;28;20048;-79
2023/05/13 11:06:20;;;;;;;7.05;3.50;;;20.00;56.60;;;;;;5048084;28;20283;-79
2023/05/13 11:08:49;;;;;;;5.97;3.40;;;20.00;56.50;;;;;;5042849;28;20128;-80
2023/05/13 11:11:26;;;;;;;7.30;3.40;;;20.10;56.80;;;;;;5029785;28;20049;-79
2023/05/13 11:13:54;;;;;;;6.70;3.15;;;20.10;57.50;;;;;;5040063;28;20133;-79
2023/05/13 11:16:22;;;;;;;5.50;3.00;;;20.30;56.20;;;;;;5041982;28;20148;-79
2023/05/13 11:18:51;;;;;;;5.93;3.30;;;20.30;55.20;;;;;;5046637;28;20264;-79
2023/05/13 11:21:18;;;;;;;5.72;3.10;;;20.40;55.20;;;;;;5060667;28;20139;-79
2023/05/13 11:23:53;;;;;;;6.40;3.45;;;20.50;54.70;;;;;;5040896;28;20072;-79
2023/05/13 11:26:20;;;;;;;8.90;3.40;;;20.50;55.70;;;;;;5044445;28;20057;-83
2023/05/13 11:28:56;;;;;;;6.97;3.60;;;20.50;55.60;;;;;;5042784;28;20677;-81
2023/05/13 11:31:26;;;;;;;7.53;2.80;;;20.60;55.50;;;;;;5042626;28;20853;-81
2023/05/13 11:34:13;;;;;;;6.28;3.20;;;20.60;55.00;;;;;;5046354;28;20089;-81
2023/05/13 11:36:41;;;;;;;5.68;3.22;;;20.70;54.90;;;;;;5034001;28;20128;-80
2023/05/13 11:39:11;;;;;;;5.93;3.25;;;20.70;54.10;;;;;;5044344;28;20621;-80
2023/05/13 11:41:40;;;;;;;7.37;3.60;;;20.80;54.00;;;;;;5064138;28;20056;-79
2023/05/13 11:44:07;;;;;;;7.15;3.30;;;20.80;53.00;;;;;;5047142;28;20707;-80
2023/05/13 11:46:36;;;;;;;6.38;3.10;;;20.80;53.50;;;;;;5039926;28;20068;-80
2023/05/13 11:49:03;;;;;;;5.80;2.90;;;20.80;53.60;;;;;;5046107;28;20459;-81
2023/05/13 11:51:30;;;;;;;8.45;3.35;;;20.90;53.40;;;;;;5024200;28;20057;-81
2023/05/13 11:54:02;;;;;;;6.73;3.30;;;20.90;52.90;;;;;;5044295;28;20053;-80
2023/05/13 11:56:30;;;;;;;8.20;3.33;;;21.00;53.10;;;;;;5032607;28;20264;-82
2023/05/13 11:59:13;;;;;;;6.47;3.55;;;21.00;52.50;;;;;;5039601;28;21136;-81
2023/05/13 12:01:41;;;;;;;5.50;3.53;;;21.10;52.10;;;;;;5046067;28;20157;-82
2023/05/13 12:04:08;;;;;;;6.43;3.58;;;21.10;52.10;;;;;;5031114;28;20053;-81
2023/05/13 12:06:42;;;;;;;6.73;3.23;;;21.10;52.40;;;;;;5046626;28;20056;-81
2023/05/13 12:09:11;;;;;;;6.50;3.38;;;21.20;53.90;;;;;;5040577;28;20268;-82
2023/05/13 12:11:39;;;;;;;5.13;3.00;;;21.30;53.60;;;;;;5061492;28;20146;-80
2023/05/13 12:14:07;;;;;;;5.22;3.10;;;21.30;52.00;;;;;;5046205;28;20076;-81
2023/05/13 12:16:34;;;;;;;5.15;2.97;;;21.40;52.20;;;;;;5059163;28;20045;-81
2023/05/13 12:19:04;;;;;;;5.67;3.20;;;21.50;51.80;;;;;;5031574;28;20055;-81
2023/05/13 12:21:33;;;;;;;6.07;3.00;;;21.50;51.90;;;;;;5025339;28;20927;-79
2023/05/13 12:24:00;;;;;;;7.95;3.63;;;21.60;50.80;;;;;;5043285;28;20069;-80
2023/05/13 12:26:27;;;;;;;10.73;4.70;;;21.60;50.80;;;;;;5022847;28;20045;-81
2023/05/13 12:28:58;;;;;;;13.20;4.63;;;21.70;51.40;;;;;;5048649;28;20045;-81
2023/05/13 12:31:26;;;;;;;12.17;4.30;;;21.70;51.30;;;;;;5031633;28;20055;-80
2023/05/13 12:33:54;;;;;;;9.30;3.55;;;21.80;51.70;;;;;;5028591;28;20268;-81
2023/05/13 12:36:30;;;;;;;6.55;3.42;;;21.90;50.70;;;;;;5045944;28;20135;-81
2023/05/13 12:39:00;;;;;;;7.20;3.33;;;21.90;51.10;;;;;;5046880;28;20066;-82
2023/05/13 12:41:28;;;;;;;7.65;3.35;;;22.00;52.50;;;;;;5041830;28;20168;-82
2023/05/13 12:43:58;;;;;;;5.07;3.20;;;22.10;51.40;;;;;;5021935;28;20057;-82
2023/05/13 12:46:26;;;;;;;6.75;3.53;;;22.10;50.70;;;;;;5030967;28;20279;-82
2023/05/13 12:48:55;;;;;;;7.35;3.75;;;22.20;50.90;;;;;;5022478;28;20741;-82